Time;durP1;ratioP1;P1;durP2;ratioP2;P2;SDS_P1;SDS_P2;PMS_P1;PMS_P2;Temp;Humidity;BMP_temperature;BMP_pressure;BME280_temperature;BME280_humidity;BME280_pressure;Samples;Min_cycle;Max_cycle;Signal;HPM_P1;HPM_P2
2023/03/26 00:07:17;;;;;;;8.00;4.80;;;;;;;6.71;68.54;97527.70;435246;1256;99240;-42
2023/03/26 00:17:24;;;;;;;6.60;3.20;;;;;;;6.55;68.70;97520.41;435166;1256;111660;-42
2023/03/26 00:27:32;;;;;;;6.40;3.20;;;;;;;6.67;69.02;97517.89;435076;1256;107026;-41
2023/03/26 00:37:41;;;;;;;6.00;3.40;;;;;;;6.85;69.20;97512.84;434969;1256;98800;-42
2023/03/26 00:47:50;;;;;;;9.50;3.30;;;;;;;6.88;69.26;97498.27;435214;1256;107097;-42
2023/03/26 00:57:57;;;;;;;5.10;3.20;;;;;;;6.82;69.50;97490.02;435205;1254;99166;-42
2023/03/26 01:08:16;;;;;;;5.10;2.70;;;;;;;6.77;69.65;97487.28;435127;1256;111443;-41
2023/03/26 01:18:25;;;;;;;5.10;2.60;;;;;;;6.84;69.80;97486.21;435132;1256;107603;-41
2023/03/26 01:28:34;;;;;;;6.30;3.00;;;;;;;6.86;70.20;97484.15;435149;1253;99238;-40
2023/03/26 01:38:39;;;;;;;;;;;;;;;6.84;70.25;97484.64;435082;1256;109026;-41
2023/03/26 01:48:48;;;;;;;6.50;5.30;;;;;;;6.63;70.44;97476.29;435079;1256;99758;-43
2023/03/26 01:58:57;;;;;;;5.20;4.20;;;;;;;6.50;70.67;97471.77;435126;1254;111440;-41
2023/03/26 02:09:05;;;;;;;7.10;4.00;;;;;;;6.57;70.79;97471.11;434999;1258;106937;-41
2023/03/26 02:19:14;;;;;;;6.00;4.30;;;;;;;6.68;71.07;97465.90;435114;1253;99304;-42
2023/03/26 02:29:21;;;;;;;9.60;5.40;;;;;;;6.74;71.22;97463.61;435185;1257;107983;-41
2023/03/26 02:39:29;;;;;;;5.50;4.60;;;;;;;6.79;71.20;97459.43;435220;1267;98897;-42
2023/03/26 02:49:35;;;;;;;5.00;3.60;;;;;;;6.87;71.26;97455.64;435211;1265;111559;-42
2023/03/26 02:59:45;;;;;;;7.20;4.30;;;;;;;6.99;71.40;97456.44;435073;1253;107259;-42
2023/03/26 03:09:52;;;;;;;7.70;4.80;;;;;;;6.98;71.51;97455.90;435190;1253;99224;-41
2023/03/26 03:19:59;;;;;;;6.60;4.80;;;;;;;6.99;71.64;97454.81;435293;1256;109275;-41
2023/03/26 03:30:09;;;;;;;5.90;3.70;;;;;;;7.10;71.82;97454.43;435031;1265;99246;-41
2023/03/26 03:40:17;;;;;;;8.70;3.40;;;;;;;7.18;71.72;97451.42;434822;1256;425356;-40
2023/03/26 03:50:24;;;;;;;6.90;5.50;;;;;;;7.23;71.81;97455.03;435019;1256;107579;-41
2023/03/26 04:00:31;;;;;;;7.30;5.20;;;;;;;7.20;71.82;97468.29;435211;1256;98707;-41
2023/03/26 04:10:38;;;;;;;6.70;3.10;;;;;;;7.10;72.09;97460.33;435155;1257;107928;-41
2023/03/26 04:20:46;;;;;;;6.40;3.50;;;;;;;7.10;72.19;97456.27;435043;1257;99250;-41
2023/03/26 04:30:55;;;;;;;10.60;6.00;;;;;;;7.13;72.42;97448.62;435107;1256;111015;-40
2023/03/26 04:41:06;;;;;;;10.90;5.90;;;;;;;7.14;72.67;97450.42;435027;1262;107333;-41
2023/03/26 05:11:29;;;;;;;5.60;3.30;;;;;;;7.00;73.28;97436.02;435034;1256;99362;-40
2023/03/26 05:21:36;;;;;;;6.20;3.00;;;;;;;7.05;73.43;97435.73;435176;1253;111627;-40
2023/03/26 05:31:44;;;;;;;9.00;5.00;;;;;;;7.22;73.68;97439.87;435112;1265;108558;-41
2023/03/26 05:51:57;;;;;;;6.80;3.50;;;;;;;7.27;73.94;97445.21;435190;1258;107544;-40
2023/03/26 06:02:05;;;;;;;7.60;4.50;;;;;;;7.62;73.98;97442.54;435110;1257;99128;-41
2023/03/26 06:12:12;;;;;;;8.40;4.30;;;;;;;7.77;74.07;97446.16;435111;1258;111378;-40
2023/03/26 06:22:19;;;;;;;8.00;3.70;;;;;;;8.06;74.58;97453.30;435002;1266;108179;-41
2023/03/26 06:32:24;;;;;;;9.20;2.80;;;;;;;9.64;73.84;97448.03;435212;1252;97968;-40
2023/03/26 06:42:31;;;;;;;7.00;4.50;;;;;;;9.52;72.34;97457.73;435101;1252;108533;-40
2023/03/26 06:52:58;;;;;;;5.60;4.00;;;;;;;8.99;72.01;97460.42;435232;1256;99109;-40
2023/03/26 07:03:03;;;;;;;9.80;3.60;;;;;;;8.59;71.85;97468.98;435337;1255;111375;-40
2023/03/26 07:13:11;;;;;;;5.20;2.70;;;;;;;8.63;71.94;97472.40;435213;1256;109324;-40
2023/03/26 07:23:18;;;;;;;6.70;2.00;;;;;;;8.89;71.78;97472.49;435100;1266;99317;-41
2023/03/26 07:33:24;;;;;;;5.70;4.60;;;;;;;9.30;70.26;97476.92;435211;1256;106984;-41
2023/03/26 07:43:33;;;;;;;3.50;2.00;;;;;;;9.88;70.22;97472.98;435276;1255;99227;-41
2023/03/26 07:53:39;;;;;;;6.10;3.50;;;;;;;10.76;69.23;97470.02;435144;1253;111346;-42
2023/03/26 08:03:50;;;;;;;12.40;7.30;;;;;;;11.48;67.79;97470.58;435074;1257;108229;-41
2023/03/26 08:13:58;;;;;;;5.80;2.30;;;;;;;11.20;67.18;97476.09;435187;1256;98599;-40
2023/03/26 08:24:03;;;;;;;7.20;3.90;;;;;;;10.70;67.25;97475.77;435178;1257;109426;-40
2023/03/26 08:34:09;;;;;;;7.50;3.40;;;;;;;10.17;67.32;97474.80;435036;1257;99221;-42
2023/03/26 08:44:51;;;;;;;14.60;6.20;;;;;;;10.04;67.68;97469.78;435301;1254;110717;-41
2023/03/26 08:55:22;;;;;;;4.00;2.00;;;;;;;10.03;67.64;97462.77;434751;1252;107121;-41
2023/03/26 09:16:10;;;;;;;12.30;3.90;;;;;;;9.68;67.26;97466.81;435189;1256;108645;-43
2023/03/26 09:26:21;;;;;;;13.30;5.00;;;;;;;9.58;67.50;97460.93;435151;1257;99310;-41
2023/03/26 09:57:28;;;;;;;6.40;2.10;;;;;;;10.62;66.99;97426.52;435128;1253;99237;-44
2023/03/26 10:18:09;;;;;;;5.00;2.70;;;;;;;11.57;64.17;97412.02;435329;1252;99276;-41
2023/03/26 10:28:38;;;;;;;6.10;2.20;;;;;;;11.12;63.64;97440.12;435243;1252;112231;-41
2023/03/26 10:39:16;;;;;;;7.40;2.90;;;;;;;9.71;65.67;97451.73;435152;1253;107895;-42
2023/03/26 10:49:52;;;;;;;3.10;1.40;;;;;;;9.66;67.44;97439.72;435134;1256;99246;-39
2023/03/26 10:59:57;;;;;;;34.20;14.80;;;;;;;10.44;68.71;97430.17;435241;1256;107499;-40
2023/03/26 11:10:11;;;;;;;12.10;4.90;;;;;;;10.79;69.01;97423.52;435215;1253;99221;-41
2023/03/26 11:30:23;;;;;;;7.70;3.00;;;;;;;12.06;67.74;97395.14;435108;1252;110077;-40
2023/03/26 11:40:34;;;;;;;4.40;2.50;;;;;;;12.41;65.91;97382.90;435674;1253;99214;-40
2023/03/26 11:50:40;;;;;;;3.40;1.90;;;;;;;12.73;64.15;97367.64;435228;1256;107892;-42
2023/03/26 12:00:47;;;;;;;7.90;5.70;;;;;;;12.91;62.95;97347.89;435244;1252;99231;-41
2023/03/26 12:10:58;;;;;;;4.80;3.40;;;;;;;12.99;62.16;97350.96;435195;1253;111195;-42
2023/03/26 12:21:06;;;;;;;3.20;1.90;;;;;;;13.03;59.85;97346.95;435158;1256;107786;-42
2023/03/26 12:51:57;;;;;;;10.80;5.10;;;;;;;12.31;58.78;97331.21;435120;1253;99308;-41
2023/03/26 13:02:03;;;;;;;10.10;4.90;;;;;;;11.65;59.52;97371.48;435171;1253;112057;-41
2023/03/26 13:12:10;;;;;;;7.00;5.20;;;;;;;9.94;61.94;97361.92;435284;1256;107274;-41
2023/03/26 13:22:18;;;;;;;7.30;4.40;;;;;;;9.93;64.00;97334.58;435346;1256;98815;-42
2023/03/26 13:32:24;;;;;;;9.20;5.30;;;;;;;10.66;65.17;97328.17;435424;1253;108751;-40
2023/03/26 13:42:39;;;;;;;11.60;7.50;;;;;;;11.31;65.15;97303.94;435302;1253;99243;-41
2023/03/26 13:52:54;;;;;;;6.70;3.50;;;;;;;11.43;65.09;97291.91;435263;1256;113148;-41
2023/03/26 14:03:10;;;;;;;7.20;4.00;;;;;;;11.48;64.80;97287.09;435145;1256;108658;-41
2023/03/26 14:13:21;;;;;;;3.30;2.30;;;;;;;11.40;64.92;97292.94;435213;1253;99273;-40
2023/03/26 14:33:47;;;;;;;3.30;2.90;;;;;;;11.26;64.82;97287.96;435160;1253;99225;-40
2023/03/26 14:44:32;;;;;;;4.80;2.80;;;;;;;11.12;64.96;97277.88;435198;1253;111054;-40
2023/03/26 15:07:28;;;;;;;9.80;5.30;;;;;;;9.66;66.80;97307.91;435196;1255;99231;-40
2023/03/26 15:17:42;;;;;;;;;;;;;;;9.18;67.45;97285.34;435100;1256;107063;-40
2023/03/26 15:48:46;;;;;;;4.90;3.60;;;;;;;9.92;68.90;97265.33;435298;1256;108211;-40
2023/03/26 15:58:52;;;;;;;17.30;9.50;;;;;;;10.04;68.94;97264.59;435362;1251;98003;-40
2023/03/26 16:19:48;;;;;;;6.30;3.60;;;;;;;9.73;68.80;97253.16;435129;1257;99272;-40
2023/03/26 16:30:29;;;;;;;14.40;6.80;;;;;;;9.49;68.90;97246.55;435209;1256;112127;-41
2023/03/26 16:40:49;;;;;;;234.50;108.10;;;;;;;9.36;68.99;97234.61;435197;1250;106625;-41
2023/03/26 16:50:55;;;;;;;12.20;6.20;;;;;;;9.30;69.29;97229.46;435359;1251;99211;-40
2023/03/26 17:01:16;;;;;;;12.70;8.60;;;;;;;9.05;69.20;97225.08;435307;1256;108254;-41
2023/03/26 17:21:34;;;;;;;24.60;15.10;;;;;;;8.62;69.86;97220.92;435246;1256;111324;-42
2023/03/26 17:31:51;;;;;;;31.70;20.70;;;;;;;8.54;69.99;97229.17;435102;1252;107257;-40
2023/03/26 17:52:18;;;;;;;26.40;17.10;;;;;;;8.17;70.52;97226.84;435141;1255;108112;-41
2023/03/26 18:02:33;;;;;;;36.10;19.70;;;;;;;7.82;70.81;97218.38;435287;1253;99224;-41
2023/03/26 18:13:03;;;;;;;39.70;21.70;;;;;;;7.50;71.13;97227.08;435177;1253;110320;-42
2023/03/26 18:23:12;;;;;;;62.40;32.40;;;;;;;7.10;71.24;97229.38;435266;1253;107347;-40
2023/03/26 18:33:20;;;;;;;86.70;44.40;;;;;;;6.97;71.94;97210.86;435205;1253;99226;-40
2023/03/26 18:43:27;;;;;;;84.70;46.70;;;;;;;7.00;72.15;97202.48;434957;1253;108493;-40
2023/03/26 19:03:48;;;;;;;145.30;72.40;;;;;;;6.80;72.60;97206.23;435149;1253;111114;-40
2023/03/26 19:14:06;;;;;;;114.60;60.70;;;;;;;6.81;72.87;97204.56;435200;1256;108037;-40
2023/03/26 19:24:13;;;;;;;124.30;63.60;;;;;;;6.98;73.11;97201.30;435097;1265;98349;-40
2023/03/26 19:34:23;;;;;;;135.60;68.50;;;;;;;7.16;73.27;97195.82;435063;1253;108316;-40
2023/03/26 19:44:32;;;;;;;159.20;78.60;;;;;;;7.34;73.52;97174.45;435318;1256;99247;-40
2023/03/26 19:54:45;;;;;;;158.10;77.70;;;;;;;7.43;73.51;97165.04;435206;1256;112116;-40
2023/03/26 20:05:06;;;;;;;154.80;79.10;;;;;;;7.45;73.72;97158.59;435271;1256;108179;-42
2023/03/26 20:15:13;;;;;;;107.90;56.80;;;;;;;7.41;73.69;97160.80;435210;1253;99192;-41
2023/03/26 20:25:30;;;;;;;35.70;21.40;;;;;;;7.45;73.77;97171.16;435241;1252;109176;-41
2023/03/26 20:45:44;;;;;;;11.70;5.70;;;;;;;7.22;74.73;97167.19;435233;1253;111242;-40
2023/03/26 21:05:59;;;;;;;7.30;1.70;;;;;;;7.19;75.49;97151.65;435206;1253;99355;-42
2023/03/26 21:16:09;;;;;;;12.80;3.60;;;;;;;7.17;75.42;97126.55;435164;1254;107445;-40
2023/03/26 21:26:26;;;;;;;4.50;1.90;;;;;;;7.03;75.88;97110.55;435202;1253;99221;-41
2023/03/26 21:36:35;;;;;;;10.10;6.10;;;;;;;6.88;75.76;97099.02;435192;1256;111341;-42
2023/03/26 21:46:41;;;;;;;8.60;4.40;;;;;;;6.91;76.11;97093.80;435492;1256;106550;-39
2023/03/26 21:56:50;;;;;;;64.40;21.80;;;;;;;7.01;76.45;97087.60;435875;1256;99247;-41
2023/03/26 22:07:04;;;;;;;61.20;20.90;;;;;;;7.13;76.48;97083.34;435134;1256;106625;-41
2023/03/26 22:17:11;;;;;;;105.00;33.80;;;;;;;7.08;76.66;97057.72;435226;1253;99343;-41
2023/03/26 22:27:19;;;;;;;78.30;26.10;;;;;;;7.10;76.95;97054.77;435112;1256;111187;-41
2023/03/26 22:37:26;;;;;;;50.80;22.90;;;;;;;7.02;77.08;97072.21;435181;1257;107933;-41
2023/03/26 22:47:34;;;;;;;22.80;13.30;;;;;;;6.89;77.10;97084.52;435179;1256;99272;-41
2023/03/26 22:57:41;;;;;;;13.60;7.10;;;;;;;6.85;77.34;97078.02;435186;1256;106803;-41
2023/03/26 23:07:48;;;;;;;10.70;5.60;;;;;;;6.76;77.32;97070.27;435144;1253;99223;-41
2023/03/26 23:17:57;;;;;;;10.20;6.50;;;;;;;6.74;77.62;97071.71;435106;1256;110499;-41
2023/03/26 23:28:04;;;;;;;19.20;11.60;;;;;;;6.84;77.95;97071.30;435118;1264;107229;-41
